Love Boat — OT3861 — position and weather

sailwx.info

Track history (hours):
 
Tides and Currents Weather Stations Pressure Air Temp Water Temp Dewpoint Dewpoint Depression Visibility Wind Speed Wind Dir Waves Ship Positions

Love Boat

Last reported at 2015-Jul-04 06:03 UTC. Time now 2015-Jul-04 08:28 UTC.
Position N 51°42' E 006°27'.

Length 110 m.

Type: Ship. MMSI: 205386190.

Date/timePositionNaut miles runAvg speedWind from/ knotsBaromVisibWave heightAir tempDewpointWater temp
2015-Jul-04 06:03N 51°42' E 006°27'2 4.4
2015-Jul-04 05:33N 51°44' E 006°25'5 4.8
2015-Jul-04 04:33N 51°47' E 006°19'7 5.8
2015-Jul-04 03:22N 51°50' E 006°10'7 5.4
2015-Jul-04 02:04N 51°51' E 005°58'22 5.7
2015-Jul-03 22:14N 51°50' E 005°23'18 6.6
2015-Jul-03 19:33N 51°50' E 004°55'8 8.4
2015-Jul-03 18:33N 51°49' E 004°41'8 8.4
2015-Jul-03 17:33N 51°50' E 004°27'9 9.2
2015-Jul-03 16:33N 51°54' E 004°14'0 0.2
2015-Jul-03 15:33N 51°54' E 004°14'0 0.0
2015-Jul-03 14:33N 51°54' E 004°14'0 0.0
2015-Jul-03 13:33N 51°54' E 004°14'0 0.0
2015-Jul-03 12:33N 51°54' E 004°14'0 0.1
2015-Jul-03 11:33N 51°54' E 004°14'0 0.0
2015-Jul-03 10:33N 51°54' E 004°14'0 0.0
2015-Jul-03 09:34N 51°54' E 004°14'0 0.0
2015-Jul-03 08:33N 51°54' E 004°14'0 0.0
2015-Jul-03 07:33N 51°54' E 004°14'0 0.0
2015-Jul-03 06:33N 51°54' E 004°14'0 0.0
2015-Jul-03 05:33N 51°54' E 004°14'0 0.0
2015-Jul-03 04:33N 51°54' E 004°14'0 0.0
2015-Jul-03 03:33N 51°54' E 004°14'0 0.0
2015-Jul-03 02:33N 51°54' E 004°14'0 0.0
2015-Jul-03 01:34N 51°54' E 004°14'0 0.0
2015-Jul-03 00:33N 51°54' E 004°14'0 0.0
2015-Jul-02 23:33N 51°54' E 004°14'0 0.0
2015-Jul-02 22:33N 51°54' E 004°14'0 0.1
2015-Jul-02 21:33N 51°54' E 004°14'0 0.0
2015-Jul-02 20:34N 51°54' E 004°14'3 2.7
2015-Jul-02 19:33N 51°52' E 004°18'7 6.8
2015-Jul-02 18:33N 51°50' E 004°28'5 5.3
2015-Jul-02 17:33N 51°48' E 004°36'5 5.4
2015-Jul-02 16:33N 51°49' E 004°45'5 5.3
2015-Jul-02 15:33N 51°49' E 004°54'15 7.1
2015-Jul-02 13:25N 51°49' E 005°18'5 5.6
2015-Jul-02 12:33N 51°52' E 005°25'51 6.3
2015-Jul-02 04:24N 51°32' E 006°42'19 1.6
2015-Jul-01 17:04N 51°45' E 006°21'4 5.7
2015-Jul-01 16:21N 51°49' E 006°17'16 5.8
2015-Jul-01 13:33N 51°58' E 005°56'6 0.2
2015-Jun-30 05:11N 51°58' E 005°47'2 3.7
2015-Jun-30 04:33N 51°58' E 005°50'56 4.3
2015-Jun-29 15:32N 51°15' E 006°46'3 3.3
2015-Jun-29 14:33N 51°12' E 006°42'0 0.0
2015-Jun-29 13:33N 51°12' E 006°42'0 0.0
2015-Jun-29 12:33N 51°12' E 006°42'0 0.0
2015-Jun-29 11:33N 51°12' E 006°42'0 0.0
2015-Jun-29 10:33N 51°12' E 006°42'0 0.0
2015-Jun-29 09:32N 51°12' E 006°42'0 0.0
2015-Jun-29 08:33N 51°12' E 006°42'0 0.0
2015-Jun-29 07:33N 51°12' E 006°42'0 0.0
2015-Jun-29 06:32N 51°12' E 006°42'0 0.0
2015-Jun-29 05:34N 51°12' E 006°42'0 0.0
2015-Jun-29 04:33N 51°12' E 006°42'0 0.0
2015-Jun-29 03:32N 51°12' E 006°42'0 0.0
2015-Jun-29 02:33N 51°12' E 006°42'0 0.0
2015-Jun-29 01:33N 51°12' E 006°42'0 0.0
2015-Jun-29 00:33N 51°12' E 006°42'0 0.0
2015-Jun-28 23:33N 51°12' E 006°42'0 0.0
2015-Jun-28 22:33N 51°12' E 006°42'0 0.0
2015-Jun-28 21:33N 51°12' E 006°42'0 0.0
2015-Jun-28 20:33N 51°12' E 006°42'0 0.0
2015-Jun-28 19:32N 51°12' E 006°42'0 0.0
2015-Jun-28 18:33N 51°12' E 006°42'1 1.0
2015-Jun-28 17:33N 51°12' E 006°44'18 5.9
2015-Jun-28 14:32N 50°57' E 006°58'  
Track history (hours):
 
Tides and Currents Weather Stations Pressure Air Temp Water Temp Dewpoint Dewpoint Depression Visibility Wind Speed Wind Dir Waves Ship Positions

Love Boat

Last reported at 2015-Jul-04 06:03 UTC. Time now 2015-Jul-04 08:28 UTC.
Position N 51°42' E 006°27'.

Length 110 m.

Type: Ship. MMSI: 205386190.

Date/timePositionNaut miles runAvg speedWind from/ knotsBaromVisibWave heightAir tempDewpointWater temp
2015-Jul-04 06:03N 51°42' E 006°27'2 4.4
2015-Jul-04 05:33N 51°44' E 006°25'5 4.8
2015-Jul-04 04:33N 51°47' E 006°19'7 5.8
2015-Jul-04 03:22N 51°50' E 006°10'7 5.4
2015-Jul-04 02:04N 51°51' E 005°58'22 5.7
2015-Jul-03 22:14N 51°50' E 005°23'18 6.6
2015-Jul-03 19:33N 51°50' E 004°55'8 8.4
2015-Jul-03 18:33N 51°49' E 004°41'8 8.4
2015-Jul-03 17:33N 51°50' E 004°27'9 9.2
2015-Jul-03 16:33N 51°54' E 004°14'0 0.2
2015-Jul-03 15:33N 51°54' E 004°14'0 0.0
2015-Jul-03 14:33N 51°54' E 004°14'0 0.0
2015-Jul-03 13:33N 51°54' E 004°14'0 0.0
2015-Jul-03 12:33N 51°54' E 004°14'0 0.1
2015-Jul-03 11:33N 51°54' E 004°14'0 0.0
2015-Jul-03 10:33N 51°54' E 004°14'0 0.0
2015-Jul-03 09:34N 51°54' E 004°14'0 0.0
2015-Jul-03 08:33N 51°54' E 004°14'0 0.0
2015-Jul-03 07:33N 51°54' E 004°14'0 0.0
2015-Jul-03 06:33N 51°54' E 004°14'0 0.0
2015-Jul-03 05:33N 51°54' E 004°14'0 0.0
2015-Jul-03 04:33N 51°54' E 004°14'0 0.0
2015-Jul-03 03:33N 51°54' E 004°14'0 0.0
2015-Jul-03 02:33N 51°54' E 004°14'0 0.0
2015-Jul-03 01:34N 51°54' E 004°14'0 0.0
2015-Jul-03 00:33N 51°54' E 004°14'0 0.0
2015-Jul-02 23:33N 51°54' E 004°14'0 0.0
2015-Jul-02 22:33N 51°54' E 004°14'0 0.1
2015-Jul-02 21:33N 51°54' E 004°14'0 0.0
2015-Jul-02 20:34N 51°54' E 004°14'3 2.7
2015-Jul-02 19:33N 51°52' E 004°18'7 6.8
2015-Jul-02 18:33N 51°50' E 004°28'5 5.3
2015-Jul-02 17:33N 51°48' E 004°36'5 5.4
2015-Jul-02 16:33N 51°49' E 004°45'5 5.3
2015-Jul-02 15:33N 51°49' E 004°54'15 7.1
2015-Jul-02 13:25N 51°49' E 005°18'5 5.6
2015-Jul-02 12:33N 51°52' E 005°25'51 6.3
2015-Jul-02 04:24N 51°32' E 006°42'19 1.6
2015-Jul-01 17:04N 51°45' E 006°21'4 5.7
2015-Jul-01 16:21N 51°49' E 006°17'16 5.8
2015-Jul-01 13:33N 51°58' E 005°56'6 0.2
2015-Jun-30 05:11N 51°58' E 005°47'2 3.7
2015-Jun-30 04:33N 51°58' E 005°50'56 4.3
2015-Jun-29 15:32N 51°15' E 006°46'3 3.3
2015-Jun-29 14:33N 51°12' E 006°42'0 0.0
2015-Jun-29 13:33N 51°12' E 006°42'0 0.0
2015-Jun-29 12:33N 51°12' E 006°42'0 0.0
2015-Jun-29 11:33N 51°12' E 006°42'0 0.0
2015-Jun-29 10:33N 51°12' E 006°42'0 0.0
2015-Jun-29 09:32N 51°12' E 006°42'0 0.0
2015-Jun-29 08:33N 51°12' E 006°42'0 0.0
2015-Jun-29 07:33N 51°12' E 006°42'0 0.0
2015-Jun-29 06:32N 51°12' E 006°42'0 0.0
2015-Jun-29 05:34N 51°12' E 006°42'0 0.0
2015-Jun-29 04:33N 51°12' E 006°42'0 0.0
2015-Jun-29 03:32N 51°12' E 006°42'0 0.0
2015-Jun-29 02:33N 51°12' E 006°42'0 0.0
2015-Jun-29 01:33N 51°12' E 006°42'0 0.0
2015-Jun-29 00:33N 51°12' E 006°42'0 0.0
2015-Jun-28 23:33N 51°12' E 006°42'0 0.0
2015-Jun-28 22:33N 51°12' E 006°42'0 0.0
2015-Jun-28 21:33N 51°12' E 006°42'0 0.0
2015-Jun-28 20:33N 51°12' E 006°42'0 0.0
2015-Jun-28 19:32N 51°12' E 006°42'0 0.0
2015-Jun-28 18:33N 51°12' E 006°42'1 1.0
2015-Jun-28 17:33N 51°12' E 006°44'18 5.9
2015-Jun-28 14:32N 50°57' E 006°58'  

Dump ship's entire track history